Rosa Maersk — OVST2 — position and weather

sailwx.info

Track history (hours):
 
Tides and Currents Weather Stations Pressure Air Temp Water Temp Dewpoint Dewpoint Depression Visibility Wind Speed Wind Dir Waves Ship Positions

Rosa Maersk

Last reported at 2014-Sep-03 04:16 UTC. Time now 2014-Sep-03 04:58 UTC.
Position N 51°46' E 002°40'.

Length 172 m; draft 7.8 m.

Type: Tanker. MMSI: 220288000.

Date/timePositionNaut miles runAvg speedWind from/ knotsBaromVisibWave heightAir tempDewpointWater temp
2014-Sep-03 04:16N 51°46' E 002°40'912.0
2014-Sep-03 03:33N 51°40' E 002°30'1111.5
2014-Sep-03 02:33N 51°32' E 002°18'1110.8
2014-Sep-03 01:33N 51°23' E 002°07'1010.2
2014-Sep-03 00:34N 51°13' E 002°04'1010.2
2014-Sep-02 23:33N 51°09' E 001°49'1010.1
2014-Sep-02 22:34N 51°02' E 001°37'1210.7
2014-Sep-02 21:25N 50°52' E 001°27'1011.5
2014-Sep-02 20:33N 50°43' E 001°22'2211.2
2014-Sep-02 18:33N 50°29' E 000°54'1211.4
2014-Sep-02 17:31N 50°25' E 000°37'29711.9
2014-Sep-01 16:31N 48°08' W 006°06'2611.6
2014-Sep-01 14:18N 47°45' W 006°25'8 7.4
2014-Sep-01 13:15N 47°39' W 006°30'5 7.4
2014-Sep-01 12:33N 47°34' W 006°33'  
2014-Aug-28 08:16N 35°12' W 013°09'95 7.3
2014-Aug-27 19:12N 33°42' W 013°44'  
Track history (hours):
 
Tides and Currents Weather Stations Pressure Air Temp Water Temp Dewpoint Dewpoint Depression Visibility Wind Speed Wind Dir Waves Ship Positions

Rosa Maersk

Last reported at 2014-Sep-03 04:16 UTC. Time now 2014-Sep-03 04:58 UTC.
Position N 51°46' E 002°40'.

Length 172 m; draft 7.8 m.

Type: Tanker. MMSI: 220288000.

Date/timePositionNaut miles runAvg speedWind from/ knotsBaromVisibWave heightAir tempDewpointWater temp
2014-Sep-03 04:16N 51°46' E 002°40'912.0
2014-Sep-03 03:33N 51°40' E 002°30'1111.5
2014-Sep-03 02:33N 51°32' E 002°18'1110.8
2014-Sep-03 01:33N 51°23' E 002°07'1010.2
2014-Sep-03 00:34N 51°13' E 002°04'1010.2
2014-Sep-02 23:33N 51°09' E 001°49'1010.1
2014-Sep-02 22:34N 51°02' E 001°37'1210.7
2014-Sep-02 21:25N 50°52' E 001°27'1011.5
2014-Sep-02 20:33N 50°43' E 001°22'2211.2
2014-Sep-02 18:33N 50°29' E 000°54'1211.4
2014-Sep-02 17:31N 50°25' E 000°37'29711.9
2014-Sep-01 16:31N 48°08' W 006°06'2611.6
2014-Sep-01 14:18N 47°45' W 006°25'8 7.4
2014-Sep-01 13:15N 47°39' W 006°30'5 7.4
2014-Sep-01 12:33N 47°34' W 006°33'  
2014-Aug-28 08:16N 35°12' W 013°09'95 7.3
2014-Aug-27 19:12N 33°42' W 013°44'  

Dump ship's entire track history